createdAt,value
2022-12-15T00:00:11.600Z,94244.13
2022-12-15T00:02:57.305Z,94235.09
2022-12-15T00:05:45.047Z,94293.09
2022-12-15T00:08:36.477Z,94300.38
2022-12-15T00:11:23.115Z,94239.53
2022-12-15T00:14:09.348Z,94272.53
2022-12-15T00:16:55.041Z,94235.31
2022-12-15T00:19:40.579Z,94258.84
2022-12-15T00:22:27.556Z,94268.50
2022-12-15T00:25:13.248Z,94215.38
2022-12-15T00:27:58.804Z,94238.31
2022-12-15T00:30:44.676Z,94275.78
2022-12-15T00:33:35.575Z,94271.31
2022-12-15T00:36:21.815Z,94281.41
2022-12-15T00:38:52.334Z,94270.94
2022-12-15T00:41:21.056Z,94220.59
2022-12-15T00:43:50.036Z,94282.38
2022-12-15T00:46:35.774Z,94286.22
2022-12-15T00:49:04.613Z,94259.66
2022-12-15T00:51:50.233Z,94283.03
2022-12-15T00:54:37.722Z,94295.53
2022-12-15T00:57:23.186Z,94254.47
2022-12-15T01:00:08.595Z,94297.53
2022-12-15T01:02:54.318Z,94296.72
2022-12-15T01:05:41.903Z,94292.69
2022-12-15T01:08:27.400Z,94289.81
2022-12-15T01:11:14.155Z,94298.69
2022-12-15T01:13:59.648Z,94309.00
2022-12-15T01:16:45.203Z,94305.16
2022-12-15T01:19:31.224Z,94298.69
2022-12-15T01:21:59.617Z,94311.97
2022-12-15T01:24:28.037Z,94315.25
2022-12-15T01:26:57.998Z,94304.16
2022-12-15T01:29:27.116Z,94313.63
2022-12-15T01:31:55.547Z,94330.97
2022-12-15T01:34:24.166Z,94325.72
2022-12-15T01:36:52.553Z,94330.16
2022-12-15T01:39:21.049Z,94322.91
2022-12-15T01:41:48.382Z,94286.28
2022-12-15T01:44:23.367Z,94297.53
2022-12-15T01:46:56.397Z,94332.38
2022-12-15T01:49:30.724Z,94292.75
2022-12-15T01:52:01.854Z,94343.28
2022-12-15T01:54:36.299Z,94307.78
2022-12-15T01:57:07.926Z,94235.09
2022-12-15T01:59:43.580Z,94216.41
2022-12-15T02:02:14.118Z,94345.47
2022-12-15T02:04:43.391Z,94352.13
2022-12-15T02:07:15.019Z,94318.09
2022-12-15T02:09:44.377Z,94323.75
2022-12-15T02:12:25.156Z,94353.56
2022-12-15T02:15:08.552Z,94359.22
2022-12-15T02:17:43.661Z,94365.47
2022-12-15T02:20:45.874Z,94360.66
2022-12-15T02:23:55.971Z,94361.25
2022-12-15T02:26:56.136Z,94372.38
2022-12-15T02:29:42.132Z,94360.88
2022-12-15T02:32:14.740Z,94329.28
2022-12-15T02:34:47.783Z,94379.06
2022-12-15T02:37:23.039Z,94295.81
2022-12-15T02:39:51.698Z,94389.94
2022-12-15T02:42:20.846Z,94392.34
2022-12-15T02:44:53.974Z,94345.00
2022-12-15T02:47:34.121Z,94281.53
2022-12-15T02:50:18.155Z,94384.50
2022-12-15T02:52:57.615Z,94352.66
2022-12-15T02:55:36.144Z,94407.09
2022-12-15T02:58:13.650Z,94382.69
2022-12-15T03:00:48.202Z,94386.91
2022-12-15T03:03:22.190Z,94424.00
2022-12-15T03:05:53.442Z,94426.84
2022-12-15T03:08:22.568Z,94425.44
2022-12-15T03:10:52.540Z,94389.16
2022-12-15T03:13:21.131Z,94420.59
2022-12-15T03:15:49.462Z,94419.00
2022-12-15T03:18:19.440Z,94426.03
2022-12-15T03:20:47.954Z,94356.91
2022-12-15T03:23:16.350Z,94399.00
2022-12-15T03:25:46.557Z,94383.09
2022-12-15T03:28:18.550Z,94409.50
2022-12-15T03:30:50.496Z,94439.16
2022-12-15T03:33:20.704Z,94445.19
2022-12-15T03:35:49.953Z,94395.00
2022-12-15T03:38:18.828Z,94442.56
2022-12-15T03:40:47.375Z,94417.34
2022-12-15T03:43:15.653Z,94458.13
2022-12-15T03:45:44.348Z,94417.78
2022-12-15T03:48:12.822Z,94414.94
2022-12-15T03:50:42.669Z,94445.41
2022-12-15T03:53:11.051Z,94441.97
2022-12-15T03:55:39.532Z,94452.84
2022-12-15T03:58:08.173Z,94456.50
2022-12-15T04:00:36.628Z,94456.09
2022-12-15T04:03:05.431Z,94454.88
2022-12-15T04:05:36.383Z,94443.78
2022-12-15T04:08:07.199Z,94453.25
2022-12-15T04:10:37.451Z,94432.28
2022-12-15T04:13:07.856Z,94465.34
2022-12-15T04:15:37.794Z,94477.03
2022-12-15T04:18:08.086Z,94439.72
2022-12-15T04:20:36.682Z,94398.72
2022-12-15T04:23:08.048Z,94467.75
2022-12-15T04:25:54.592Z,94476.63
2022-12-15T04:28:40.851Z,94492.41
2022-12-15T04:31:28.338Z,94501.28
2022-12-15T04:34:16.957Z,94506.34
2022-12-15T04:37:05.394Z,94497.44
2022-12-15T04:39:53.625Z,94492.81
2022-12-15T04:42:39.520Z,94495.63
2022-12-15T04:45:26.843Z,94498.47
2022-12-15T04:48:12.550Z,94496.06
2022-12-15T04:50:57.798Z,94497.06
2022-12-15T04:53:43.872Z,94506.53
2022-12-15T04:56:31.964Z,94486.94
2022-12-15T04:59:17.988Z,94498.47
2022-12-15T05:02:04.449Z,94499.25
2022-12-15T05:04:50.473Z,94507.34
2022-12-15T05:07:36.224Z,94507.97
2022-12-15T05:10:22.978Z,94501.69
2022-12-15T05:13:10.123Z,94503.09
2022-12-15T05:15:55.877Z,94419.00
2022-12-15T05:18:41.899Z,94487.16
2022-12-15T05:21:27.288Z,94487.97
2022-12-15T05:24:13.111Z,94493.00
2022-12-15T05:26:58.612Z,94505.72
2022-12-15T05:29:45.642Z,94525.28
2022-12-15T05:32:14.258Z,94537.22
2022-12-15T05:34:42.763Z,94482.94
2022-12-15T05:37:11.127Z,94516.03
2022-12-15T05:39:39.442Z,94480.72
2022-12-15T05:42:08.131Z,94547.31
2022-12-15T05:44:37.966Z,94533.59
2022-12-15T05:47:06.549Z,94559.03
2022-12-15T05:49:35.817Z,94559.00
2022-12-15T05:52:04.485Z,94563.06
2022-12-15T05:54:32.882Z,94563.84
2022-12-15T05:57:01.246Z,94549.91
2022-12-15T05:59:29.780Z,94568.28
2022-12-15T06:01:59.818Z,94577.78
2022-12-15T06:04:28.243Z,94585.88
2022-12-15T06:06:58.587Z,94590.09
2022-12-15T06:09:26.947Z,94595.53
2022-12-15T06:11:55.277Z,94596.38
2022-12-15T06:14:23.646Z,94580.78
2022-12-15T06:16:52.110Z,94595.75
2022-12-15T06:19:22.283Z,94599.59
2022-12-15T06:21:50.694Z,94593.34
2022-12-15T06:24:19.225Z,94605.44
2022-12-15T06:26:49.829Z,94607.66
2022-12-15T06:29:18.526Z,94611.06
2022-12-15T06:31:47.146Z,94567.47
2022-12-15T06:34:17.896Z,94526.66
2022-12-15T06:36:47.761Z,94511.28
2022-12-15T06:39:17.740Z,94563.97
2022-12-15T06:41:46.292Z,94609.03
2022-12-15T06:44:16.282Z,94620.53
2022-12-15T06:46:46.321Z,94627.19
2022-12-15T06:49:15.900Z,94621.53
2022-12-15T06:51:45.219Z,94614.47
2022-12-15T06:54:15.647Z,94630.84
2022-12-15T06:56:44.068Z,94624.38
2022-12-15T06:59:13.507Z,94618.34
2022-12-15T07:01:43.152Z,94639.31
2022-12-15T07:04:12.429Z,94627.63
2022-12-15T07:06:42.516Z,94603.31
2022-12-15T07:09:17.740Z,94614.66
2022-12-15T07:11:49.394Z,94642.50
2022-12-15T07:14:17.856Z,94633.81
2022-12-15T07:16:46.490Z,94597.22
2022-12-15T07:19:15.208Z,94642.50
2022-12-15T07:21:44.560Z,94651.34
2022-12-15T07:24:13.978Z,94650.53
2022-12-15T07:26:44.950Z,94659.34
2022-12-15T07:29:16.891Z,94642.00
2022-12-15T07:31:48.097Z,94658.56
2022-12-15T07:34:16.765Z,94670.69
2022-12-15T07:36:51.597Z,94612.47
2022-12-15T07:39:20.584Z,94664.03
2022-12-15T07:41:50.685Z,94638.34
2022-12-15T07:44:19.427Z,94687.25
2022-12-15T07:46:49.475Z,94684.03
2022-12-15T07:49:18.396Z,94692.94
2022-12-15T07:51:46.959Z,94660.19
2022-12-15T07:54:15.913Z,94629.28
2022-12-15T07:56:44.467Z,94672.38
2022-12-15T07:59:21.199Z,94674.63
2022-12-15T08:01:50.875Z,94681.28
2022-12-15T08:04:19.987Z,94686.13
2022-12-15T08:06:48.349Z,94691.38
2022-12-15T08:09:16.912Z,94696.03
2022-12-15T08:11:45.245Z,94653.59
2022-12-15T08:14:17.638Z,94696.69
2022-12-15T08:16:48.372Z,94693.06
2022-12-15T08:19:18.144Z,94693.91
2022-12-15T08:21:47.647Z,94693.09
2022-12-15T08:24:17.460Z,94679.38
2022-12-15T08:26:50.191Z,94685.44
2022-12-15T08:32:09.275Z,94688.88
2022-12-15T08:34:37.936Z,94688.28
2022-12-15T08:37:06.412Z,94666.84
2022-12-15T08:39:34.745Z,94615.16
2022-12-15T08:42:03.308Z,94685.63
2022-12-15T08:44:31.694Z,94727.47
2022-12-15T08:46:59.977Z,94681.53
2022-12-15T08:49:29.801Z,94694.22
2022-12-15T08:51:58.316Z,94636.44
2022-12-15T08:54:26.620Z,94692.19
2022-12-15T08:56:55.402Z,94689.34
2022-12-15T08:59:24.007Z,94698.22
2022-12-15T09:01:52.622Z,94707.25
2022-12-15T09:04:21.178Z,94703.38
2022-12-15T09:06:51.592Z,94683.19
2022-12-15T09:09:20.546Z,94720.56
2022-12-15T09:11:49.249Z,94711.81
2022-12-15T09:14:19.708Z,94720.09
2022-12-15T09:16:51.400Z,94719.47
2022-12-15T09:19:20.518Z,94720.69
2022-12-15T09:21:50.382Z,94724.06
2022-12-15T09:24:28.904Z,94733.75
2022-12-15T09:27:03.458Z,94725.03
2022-12-15T09:29:32.333Z,94694.69
2022-12-15T09:32:01.198Z,94662.13
2022-12-15T09:34:29.629Z,94734.13
2022-12-15T09:36:59.429Z,94744.63
2022-12-15T09:39:27.960Z,94737.28
2022-12-15T09:41:59.940Z,94700.31
2022-12-15T09:44:31.628Z,94739.19
2022-12-15T09:47:08.418Z,94751.47
2022-12-15T09:49:51.714Z,94741.72
2022-12-15T09:52:25.195Z,94759.91
2022-12-15T09:54:54.167Z,94754.78
2022-12-15T09:57:33.205Z,94757.81
2022-12-15T10:00:16.043Z,94762.28
2022-12-15T10:03:09.639Z,94745.09
2022-12-15T10:06:14.513Z,94759.53
2022-12-15T10:08:41.345Z,94755.59
2022-12-15T10:11:21.438Z,94761.59
2022-12-15T10:13:55.916Z,94756.03
2022-12-15T10:16:30.340Z,94742.25
2022-12-15T10:19:07.353Z,94754.81
2022-12-15T10:21:36.609Z,94682.28
2022-12-15T10:24:31.538Z,94751.22
2022-12-15T10:27:21.497Z,94742.94
2022-12-15T10:29:55.434Z,94750.47
2022-12-15T10:32:31.753Z,94748.13
2022-12-15T10:35:00.250Z,94746.31
2022-12-15T10:37:28.669Z,94739.19
2022-12-15T10:39:58.696Z,94749.47
2022-12-15T10:42:28.757Z,94709.41
2022-12-15T10:44:58.790Z,94745.22
2022-12-15T10:47:29.098Z,94750.56
2022-12-15T10:50:24.058Z,94744.84
2022-12-15T10:52:53.287Z,94744.84
2022-12-15T10:55:38.609Z,94714.31
2022-12-15T10:58:16.962Z,94739.09
2022-12-15T11:00:46.632Z,94737.75
2022-12-15T11:03:25.744Z,94740.97
2022-12-15T11:05:55.472Z,94738.88
2022-12-15T11:08:25.777Z,94681.13
2022-12-15T11:11:15.713Z,94735.44
2022-12-15T11:13:44.691Z,94741.63
2022-12-15T11:16:17.854Z,94747.34
2022-12-15T11:18:51.391Z,94756.75
2022-12-15T11:21:23.899Z,94748.44
2022-12-15T11:23:59.358Z,94736.03
2022-12-15T11:26:42.014Z,94700.22
2022-12-15T11:29:22.532Z,94739.72
2022-12-15T11:31:52.596Z,94704.38
2022-12-15T11:34:24.252Z,94744.63
2022-12-15T11:37:03.951Z,94739.59
2022-12-15T11:39:46.187Z,94737.31
2022-12-15T11:42:30.358Z,94736.84
2022-12-15T11:45:09.205Z,94735.63
2022-12-15T11:47:45.157Z,94733.44
2022-12-15T11:50:32.162Z,94732.84
2022-12-15T11:53:38.885Z,94723.75
2022-12-15T11:56:16.280Z,94656.97
2022-12-15T11:59:04.925Z,94661.44
2022-12-15T12:01:58.871Z,94725.34
2022-12-15T12:04:39.270Z,94723.16
2022-12-15T12:07:15.654Z,94722.13
2022-12-15T12:09:52.788Z,94705.75
2022-12-15T12:12:27.317Z,94712.56
2022-12-15T12:15:15.830Z,94704.06
2022-12-15T12:17:47.630Z,94698.88
2022-12-15T12:20:19.896Z,94675.34
2022-12-15T12:22:58.947Z,94708.28
2022-12-15T12:25:28.111Z,94670.75
2022-12-15T12:28:00.051Z,94701.91
2022-12-15T12:30:34.741Z,94693.84
2022-12-15T12:33:10.961Z,94691.88
2022-12-15T12:35:45.947Z,94661.25
2022-12-15T12:38:15.161Z,94693.00
2022-12-15T12:40:55.180Z,94695.06
2022-12-15T12:43:33.593Z,94698.94
2022-12-15T12:46:10.783Z,94642.81
2022-12-15T12:48:45.121Z,94705.63
2022-12-15T12:51:26.962Z,94665.88
2022-12-15T12:53:56.434Z,94663.84
2022-12-15T12:56:35.116Z,94671.22
2022-12-15T12:59:08.966Z,94672.28
2022-12-15T13:01:39.410Z,94686.56
2022-12-15T13:04:13.570Z,94691.59
2022-12-15T13:07:05.812Z,94665.25
2022-12-15T13:09:42.532Z,94692.50
2022-12-15T13:12:52.610Z,94700.88
2022-12-15T13:15:37.445Z,94684.31
2022-12-15T13:18:16.460Z,94679.22
2022-12-15T13:20:50.571Z,94675.06
2022-12-15T13:23:41.951Z,94678.59
2022-12-15T13:26:15.010Z,94642.63
2022-12-15T13:28:51.679Z,94687.84
2022-12-15T13:31:31.793Z,94647.91
2022-12-15T13:34:13.104Z,94668.13
2022-12-15T13:36:55.963Z,94686.38
2022-12-15T13:39:51.951Z,94709.22
2022-12-15T13:42:40.252Z,94700.16
2022-12-15T13:45:51.476Z,94692.97
2022-12-15T13:48:28.013Z,94699.03
2022-12-15T13:51:04.549Z,94700.13
2022-12-15T13:53:44.818Z,94697.47
2022-12-15T13:56:42.849Z,94695.28
2022-12-15T13:59:20.945Z,94695.13
2022-12-15T14:01:55.732Z,94694.50
2022-12-15T14:04:24.640Z,94688.13
2022-12-15T14:06:57.046Z,94673.84
2022-12-15T14:09:29.994Z,94694.59
2022-12-15T14:11:59.322Z,94693.97
2022-12-15T14:14:31.355Z,94682.47
2022-12-15T14:17:02.640Z,94660.91
2022-12-15T14:19:41.942Z,94688.56
2022-12-15T14:25:21.196Z,94674.94
2022-12-15T14:27:50.854Z,94673.16
2022-12-15T14:30:26.441Z,94670.63
2022-12-15T14:32:59.607Z,94637.16
2022-12-15T14:35:32.979Z,94681.97
2022-12-15T14:38:06.896Z,94685.66
2022-12-15T14:40:37.331Z,94671.94
2022-12-15T14:43:08.675Z,94671.56
2022-12-15T14:45:37.487Z,94682.09
2022-12-15T14:51:01.721Z,94665.84
2022-12-15T14:53:35.105Z,94629.03
2022-12-15T14:56:29.659Z,94670.63
2022-12-15T14:59:04.009Z,94678.13
2022-12-15T15:01:35.365Z,94670.50
2022-12-15T15:04:05.413Z,94671.28
2022-12-15T15:06:37.509Z,94666.09
2022-12-15T15:09:23.778Z,94661.66
2022-12-15T15:11:54.578Z,94677.41
2022-12-15T15:14:27.272Z,94667.69
2022-12-15T15:17:09.772Z,94690.94
2022-12-15T15:19:40.588Z,94698.88
2022-12-15T15:22:37.914Z,94710.47
2022-12-15T15:28:14.119Z,94713.53
2022-12-15T15:30:45.222Z,94720.84
2022-12-15T15:33:14.764Z,94676.03
2022-12-15T15:35:45.260Z,94670.75
2022-12-15T15:38:21.724Z,94724.72
2022-12-15T15:40:54.940Z,94703.09
2022-12-15T15:43:25.739Z,94717.47
2022-12-15T15:46:00.300Z,94710.59
2022-12-15T15:48:32.137Z,94720.91
2022-12-15T15:51:02.125Z,94718.47
2022-12-15T15:53:33.210Z,94716.25
2022-12-15T15:56:03.533Z,94717.69
2022-12-15T15:58:33.739Z,94723.97
2022-12-15T16:01:03.826Z,94610.47
2022-12-15T16:03:36.180Z,94725.84
2022-12-15T16:06:05.924Z,94719.56
2022-12-15T16:08:38.347Z,94721.97
2022-12-15T16:11:07.558Z,94713.72
2022-12-15T16:13:37.405Z,94712.91
2022-12-15T16:16:06.312Z,94725.44
2022-12-15T16:18:35.340Z,94693.09
2022-12-15T16:21:03.913Z,94728.28
2022-12-15T16:23:32.451Z,94735.75
2022-12-15T16:26:01.603Z,94724.66
2022-12-15T16:28:32.144Z,94740.00
2022-12-15T16:31:02.696Z,94736.75
2022-12-15T16:33:31.137Z,94707.88
2022-12-15T16:35:59.816Z,94709.69
2022-12-15T16:38:31.322Z,94734.75
2022-12-15T16:41:05.803Z,94726.25
2022-12-15T16:43:38.136Z,94740.03
2022-12-15T16:46:14.263Z,94737.81
2022-12-15T16:48:42.926Z,94732.72
2022-12-15T16:51:21.429Z,94697.56
2022-12-15T16:53:50.304Z,94720.81
2022-12-15T16:56:18.626Z,94722.63
2022-12-15T16:58:49.056Z,94733.94
2022-12-15T17:01:23.228Z,94722.44
2022-12-15T17:03:51.791Z,94727.47
2022-12-15T17:06:20.398Z,94730.31
2022-12-15T17:08:51.692Z,94690.09
2022-12-15T17:11:24.889Z,94741.63
2022-12-15T17:13:55.576Z,94720.22
2022-12-15T17:16:29.999Z,94715.34
2022-12-15T17:18:58.915Z,94688.47
2022-12-15T17:21:30.363Z,94710.50
2022-12-15T17:24:02.100Z,94729.69
2022-12-15T17:26:34.082Z,94614.72
2022-12-15T17:29:07.921Z,94706.03
2022-12-15T17:31:39.094Z,94695.13
2022-12-15T17:34:25.755Z,94697.34
2022-12-15T17:36:54.429Z,94720.19
2022-12-15T17:39:24.461Z,94717.94
2022-12-15T17:42:02.339Z,94698.28
2022-12-15T17:44:35.823Z,94733.50
2022-12-15T17:47:08.983Z,94697.50
2022-12-15T17:49:38.886Z,94717.72
2022-12-15T17:52:16.853Z,94728.03
2022-12-15T17:54:45.923Z,94697.28
2022-12-15T17:57:15.162Z,94705.38
2022-12-15T17:59:43.792Z,94734.88
2022-12-15T18:02:16.281Z,94731.06
2022-12-15T18:04:45.552Z,94771.44
2022-12-15T18:07:18.699Z,94745.38
2022-12-15T18:09:47.795Z,94710.78
2022-12-15T18:12:25.692Z,94735.88
2022-12-15T18:14:54.920Z,94738.28
2022-12-15T18:17:25.476Z,94719.28
2022-12-15T18:19:54.102Z,94727.75
2022-12-15T18:22:25.615Z,94708.78
2022-12-15T18:24:55.747Z,94723.28
2022-12-15T18:27:25.489Z,94736.63
2022-12-15T18:29:53.970Z,94688.66
2022-12-15T18:32:26.193Z,94716.75
2022-12-15T18:34:55.205Z,94737.81
2022-12-15T18:37:25.963Z,94733.34
2022-12-15T18:39:57.139Z,94696.13
2022-12-15T18:42:29.820Z,94699.31
2022-12-15T18:45:00.630Z,94737.34
2022-12-15T18:47:30.764Z,94729.88
2022-12-15T18:50:01.139Z,94721.78
2022-12-15T18:52:34.433Z,94730.66
2022-12-15T18:55:03.768Z,94701.50
2022-12-15T18:57:36.146Z,94673.41
2022-12-15T19:00:18.648Z,94727.22
2022-12-15T19:02:50.256Z,94717.53
2022-12-15T19:05:33.029Z,94716.72
2022-12-15T19:08:05.301Z,94710.44
2022-12-15T19:10:36.163Z,94715.09
2022-12-15T19:13:04.668Z,94697.72
2022-12-15T19:15:33.258Z,94698.75
2022-12-15T19:18:20.761Z,94688.44
2022-12-15T19:21:06.289Z,94654.13
2022-12-15T19:23:35.273Z,94677.56
2022-12-15T19:26:04.168Z,94705.63
2022-12-15T19:28:34.218Z,94677.13
2022-12-15T19:31:02.601Z,94696.94
2022-12-15T19:33:34.151Z,94705.63
2022-12-15T19:36:04.373Z,94707.03
2022-12-15T19:38:34.333Z,94683.16
2022-12-15T19:41:03.357Z,94707.66
2022-12-15T19:43:32.574Z,94702.41
2022-12-15T19:46:01.926Z,94703.22
2022-12-15T19:48:32.039Z,94679.75
2022-12-15T19:51:01.284Z,94697.72
2022-12-15T19:53:31.552Z,94704.38
2022-12-15T19:56:02.639Z,94680.31
2022-12-15T19:58:33.060Z,94677.91
2022-12-15T20:01:06.868Z,94687.41
2022-12-15T20:03:37.975Z,94665.97
2022-12-15T20:06:15.403Z,94682.38
2022-12-15T20:08:45.905Z,94665.44
2022-12-15T20:11:19.807Z,94665.22
2022-12-15T20:13:50.558Z,94665.44
2022-12-15T20:16:20.568Z,94663.44
2022-12-15T20:18:53.386Z,94662.44
2022-12-15T20:21:23.526Z,94652.88
2022-12-15T20:23:55.946Z,94648.50
2022-12-15T20:26:26.495Z,94652.34
2022-12-15T20:28:55.150Z,94646.69
2022-12-15T20:31:26.266Z,94641.25
2022-12-15T20:33:56.379Z,94608.50
2022-12-15T20:36:27.897Z,94645.06
2022-12-15T20:38:56.795Z,94629.09
2022-12-15T20:41:26.885Z,94644.09
2022-12-15T20:43:56.698Z,94647.09
2022-12-15T20:46:26.665Z,94632.47
2022-12-15T20:48:57.139Z,94654.97
2022-12-15T20:51:27.167Z,94647.69
2022-12-15T20:53:59.391Z,94640.03
2022-12-15T20:56:29.000Z,94634.00
2022-12-15T20:58:59.319Z,94631.81
2022-12-15T21:01:31.900Z,94634.25
2022-12-15T21:04:03.797Z,94642.53
2022-12-15T21:06:33.064Z,94643.38
2022-12-15T21:09:01.505Z,94644.16
2022-12-15T21:11:33.999Z,94651.84
2022-12-15T21:14:04.645Z,94619.53
2022-12-15T21:16:33.954Z,94632.25
2022-12-15T21:19:19.846Z,94641.75
2022-12-15T21:21:55.511Z,94648.22
2022-12-15T21:24:26.557Z,94606.97
2022-12-15T21:26:55.314Z,94647.00
2022-12-15T21:29:25.470Z,94627.81
2022-12-15T21:31:53.825Z,94584.78
2022-12-15T21:34:23.654Z,94616.69
2022-12-15T21:36:55.525Z,94642.19
2022-12-15T21:39:29.624Z,94648.84
2022-12-15T21:42:00.636Z,94640.16
2022-12-15T21:44:29.165Z,94623.97
2022-12-15T21:46:57.443Z,94655.50
2022-12-15T21:49:26.537Z,94654.50
2022-12-15T21:51:58.082Z,94647.22
2022-12-15T21:54:31.190Z,94667.22
2022-12-15T21:56:59.985Z,94676.50
2022-12-15T21:59:30.847Z,94640.50
2022-12-15T22:02:00.991Z,94674.25
2022-12-15T22:04:32.780Z,94682.94
2022-12-15T22:07:01.744Z,94672.63
2022-12-15T22:09:30.496Z,94681.75
2022-12-15T22:11:59.141Z,94693.25
2022-12-15T22:14:29.611Z,94676.88
2022-12-15T22:16:58.477Z,94702.75
2022-12-15T22:19:27.146Z,94696.50
2022-12-15T22:21:57.103Z,94702.56
2022-12-15T22:24:25.525Z,94617.47
2022-12-15T22:26:53.955Z,94686.19
2022-12-15T22:29:25.065Z,94692.84
2022-12-15T22:31:54.908Z,94697.72
2022-12-15T22:34:25.048Z,94675.88
2022-12-15T22:36:53.497Z,94656.69
2022-12-15T22:39:25.562Z,94695.69
2022-12-15T22:41:54.100Z,94697.09
2022-12-15T22:44:25.124Z,94669.81
2022-12-15T22:46:55.741Z,94684.59
2022-12-15T22:49:26.871Z,94654.66
2022-12-15T22:51:55.570Z,94677.34
2022-12-15T22:54:27.104Z,94609.22
2022-12-15T22:56:59.909Z,94673.31
2022-12-15T22:59:31.974Z,94648.66
2022-12-15T23:02:02.629Z,94664.41
2022-12-15T23:04:31.579Z,94631.91
2022-12-15T23:07:01.409Z,94669.88
2022-12-15T23:09:31.413Z,94670.88
2022-12-15T23:11:59.382Z,94666.22
2022-12-15T23:14:41.472Z,94665.84
2022-12-15T23:17:09.933Z,94655.16
2022-12-15T23:19:38.400Z,94594.72
2022-12-15T23:22:06.742Z,94651.91
2022-12-15T23:24:36.595Z,94634.91
2022-12-15T23:27:06.000Z,94657.34
2022-12-15T23:29:34.707Z,94660.59
2022-12-15T23:32:03.471Z,94655.75
2022-12-15T23:34:31.909Z,94664.00
2022-12-15T23:37:00.979Z,94653.91
2022-12-15T23:39:29.575Z,94662.97
2022-12-15T23:41:59.460Z,94655.09
2022-12-15T23:44:28.255Z,94659.16
2022-12-15T23:46:57.501Z,94668.44
2022-12-15T23:49:26.026Z,94657.31
2022-12-15T23:51:54.437Z,94663.38
2022-12-15T23:54:23.502Z,94651.84
2022-12-15T23:56:51.895Z,94660.78
2022-12-15T23:59:21.942Z,94670.44
